createdAt,value
2022-11-16T00:00:18.889Z,0.00
2022-11-16T00:01:18.872Z,0.00
2022-11-16T00:02:18.883Z,0.00
2022-11-16T00:03:18.852Z,0.00
2022-11-16T00:04:18.838Z,0.00
2022-11-16T00:05:18.824Z,0.00
2022-11-16T00:06:18.800Z,0.00
2022-11-16T00:07:18.865Z,0.00
2022-11-16T00:08:18.811Z,0.00
2022-11-16T00:09:18.778Z,0.00
2022-11-16T00:10:18.758Z,0.00
2022-11-16T00:11:18.758Z,0.00
2022-11-16T00:12:18.736Z,0.00
2022-11-16T00:13:18.749Z,0.00
2022-11-16T00:14:18.711Z,0.00
2022-11-16T00:15:18.702Z,0.00
2022-11-16T00:16:18.707Z,0.00
2022-11-16T00:17:18.689Z,0.00
2022-11-16T00:18:18.696Z,0.00
2022-11-16T00:19:18.653Z,0.00
2022-11-16T00:20:18.642Z,0.00
2022-11-16T00:21:18.653Z,0.00
2022-11-16T00:22:18.639Z,0.00
2022-11-16T00:23:18.625Z,0.00
2022-11-16T00:24:18.611Z,0.00
2022-11-16T00:25:18.603Z,0.00
2022-11-16T00:26:18.578Z,0.00
2022-11-16T00:27:18.580Z,0.00
2022-11-16T00:28:18.579Z,0.00
2022-11-16T00:29:18.541Z,0.00
2022-11-16T00:30:18.531Z,0.00
2022-11-16T00:31:18.520Z,0.00
2022-11-16T00:32:18.541Z,0.00
2022-11-16T00:33:18.508Z,0.00
2022-11-16T00:34:18.511Z,0.00
2022-11-16T00:35:18.494Z,0.00
2022-11-16T00:36:18.482Z,0.00
2022-11-16T00:37:18.463Z,0.00
2022-11-16T00:38:18.464Z,0.00
2022-11-16T00:39:18.431Z,0.00
2022-11-16T00:40:18.426Z,0.00
2022-11-16T00:41:18.407Z,0.00
2022-11-16T00:42:18.410Z,0.00
2022-11-16T00:43:18.403Z,0.00
2022-11-16T00:44:18.380Z,0.00
2022-11-16T00:45:18.379Z,0.00
2022-11-16T00:46:18.351Z,0.00
2022-11-16T00:47:18.339Z,0.00
2022-11-16T00:48:18.373Z,0.00
2022-11-16T00:49:18.326Z,0.00
2022-11-16T00:50:18.320Z,0.00
2022-11-16T00:51:18.295Z,0.00
2022-11-16T00:52:18.287Z,0.00
2022-11-16T00:53:18.312Z,0.00
2022-11-16T00:54:18.262Z,0.00
2022-11-16T00:55:18.274Z,0.00
2022-11-16T00:56:18.252Z,0.00
2022-11-16T00:57:18.241Z,0.00
2022-11-16T00:58:18.245Z,0.00
2022-11-16T00:59:18.205Z,0.00
2022-11-16T01:00:18.223Z,0.00
2022-11-16T01:01:18.255Z,0.00
2022-11-16T01:02:18.187Z,0.00
2022-11-16T01:03:18.185Z,0.00
2022-11-16T01:04:18.180Z,0.00
2022-11-16T01:05:18.151Z,0.00
2022-11-16T01:06:18.130Z,0.00
2022-11-16T01:07:18.212Z,0.00
2022-11-16T01:08:18.137Z,0.00
2022-11-16T01:09:18.093Z,0.00
2022-11-16T01:10:18.081Z,0.00
2022-11-16T01:11:18.076Z,0.00
2022-11-16T01:12:18.085Z,0.00
2022-11-16T01:13:18.061Z,0.00
2022-11-16T01:14:18.039Z,0.00
2022-11-16T01:15:18.041Z,0.00
2022-11-16T01:16:18.016Z,0.00
2022-11-16T01:17:18.008Z,0.00
2022-11-16T01:18:18.014Z,0.00
2022-11-16T01:19:17.993Z,0.00
2022-11-16T01:20:18.008Z,0.00
2022-11-16T01:21:17.979Z,0.00
2022-11-16T01:22:17.964Z,0.00
2022-11-16T01:23:17.961Z,0.00
2022-11-16T01:24:17.965Z,0.00
2022-11-16T01:25:17.931Z,0.00
2022-11-16T01:26:17.918Z,0.00
2022-11-16T01:27:17.905Z,0.00
2022-11-16T01:28:17.881Z,0.00
2022-11-16T01:29:17.886Z,0.00
2022-11-16T01:30:17.871Z,0.00
2022-11-16T01:31:17.862Z,0.00
2022-11-16T01:32:17.848Z,0.00
2022-11-16T01:33:17.827Z,0.00
2022-11-16T01:34:17.826Z,0.00
2022-11-16T01:35:17.804Z,0.00
2022-11-16T01:36:17.826Z,0.00
2022-11-16T01:37:17.796Z,0.00
2022-11-16T01:38:17.783Z,0.00
2022-11-16T01:39:17.783Z,0.00
2022-11-16T01:40:17.763Z,0.00
2022-11-16T01:41:17.733Z,0.00
2022-11-16T01:42:17.727Z,0.00
2022-11-16T01:43:17.713Z,0.00
2022-11-16T01:44:17.718Z,0.00
2022-11-16T01:45:17.693Z,0.00
2022-11-16T01:46:17.698Z,0.00
2022-11-16T01:47:17.681Z,0.00
2022-11-16T01:48:17.757Z,0.00
2022-11-16T01:49:17.670Z,0.00
2022-11-16T01:50:17.634Z,0.00
2022-11-16T01:51:17.627Z,0.00
2022-11-16T01:52:17.634Z,0.00
2022-11-16T01:53:17.668Z,0.00
2022-11-16T01:54:17.619Z,0.00
2022-11-16T01:55:17.581Z,0.00
2022-11-16T01:56:17.581Z,0.00
2022-11-16T01:57:17.566Z,0.00
2022-11-16T01:58:17.545Z,0.00
2022-11-16T01:59:17.570Z,0.00
2022-11-16T02:00:17.520Z,0.00
2022-11-16T02:01:17.583Z,0.00
2022-11-16T02:02:17.519Z,0.00
2022-11-16T02:03:17.486Z,0.00
2022-11-16T02:04:17.485Z,0.00
2022-11-16T02:05:17.476Z,0.00
2022-11-16T02:06:17.455Z,0.00
2022-11-16T02:07:17.550Z,0.00
2022-11-16T02:08:17.468Z,0.00
2022-11-16T02:09:17.438Z,0.00
2022-11-16T02:10:17.422Z,0.00
2022-11-16T02:11:17.398Z,0.00
2022-11-16T02:12:17.388Z,0.00
2022-11-16T02:13:17.388Z,0.00
2022-11-16T02:14:17.382Z,0.00
2022-11-16T02:15:17.366Z,0.00
2022-11-16T02:16:17.360Z,0.00
2022-11-16T02:17:17.348Z,0.00
2022-11-16T02:18:17.322Z,0.00
2022-11-16T02:19:17.319Z,0.00
2022-11-16T02:20:17.310Z,0.00
2022-11-16T02:21:17.296Z,0.00
2022-11-16T02:22:17.287Z,0.00
2022-11-16T02:23:17.262Z,0.00
2022-11-16T02:24:17.285Z,0.00
2022-11-16T02:25:17.240Z,0.00
2022-11-16T02:26:17.243Z,0.00
2022-11-16T02:27:17.237Z,0.00
2022-11-16T02:28:17.223Z,0.00
2022-11-16T02:29:17.229Z,0.00
2022-11-16T02:30:17.206Z,0.00
2022-11-16T02:31:17.180Z,0.00
2022-11-16T02:32:17.163Z,0.00
2022-11-16T02:33:17.164Z,0.00
2022-11-16T02:34:17.156Z,0.00
2022-11-16T02:35:17.148Z,0.00
2022-11-16T02:36:17.137Z,0.00
2022-11-16T02:37:17.104Z,0.00
2022-11-16T02:38:17.110Z,0.00
2022-11-16T02:39:17.109Z,0.00
2022-11-16T02:40:17.094Z,0.00
2022-11-16T02:41:17.061Z,0.00
2022-11-16T02:42:17.065Z,0.00
2022-11-16T02:43:17.039Z,0.00
2022-11-16T02:44:17.057Z,0.00
2022-11-16T02:45:17.018Z,0.00
2022-11-16T02:46:17.020Z,0.00
2022-11-16T02:47:16.999Z,0.00
2022-11-16T02:48:16.981Z,0.00
2022-11-16T02:49:17.002Z,0.00
2022-11-16T02:50:16.976Z,0.00
2022-11-16T02:51:16.960Z,0.00
2022-11-16T02:52:16.938Z,0.00
2022-11-16T02:53:16.934Z,0.00
2022-11-16T02:54:16.930Z,0.00
2022-11-16T02:55:16.909Z,0.00
2022-11-16T02:56:16.924Z,0.00
2022-11-16T02:57:16.885Z,0.00
2022-11-16T02:58:16.869Z,0.00
2022-11-16T02:59:17.825Z,0.00
2022-11-16T03:00:16.848Z,0.00
2022-11-16T03:01:16.945Z,0.00
2022-11-16T03:02:16.843Z,0.00
2022-11-16T03:03:16.815Z,0.00
2022-11-16T03:04:16.822Z,0.00
2022-11-16T03:05:16.796Z,0.00
2022-11-16T03:06:16.785Z,0.00
2022-11-16T03:07:16.835Z,0.00
2022-11-16T03:08:16.790Z,0.00
2022-11-16T03:09:16.760Z,0.00
2022-11-16T03:10:16.736Z,0.00
2022-11-16T03:11:16.724Z,0.00
2022-11-16T03:12:16.743Z,0.00
2022-11-16T03:13:16.713Z,0.00
2022-11-16T03:14:16.703Z,0.00
2022-11-16T03:15:16.738Z,0.00
2022-11-16T03:16:16.671Z,0.00
2022-11-16T03:17:16.670Z,0.00
2022-11-16T03:18:16.658Z,0.00
2022-11-16T03:19:16.667Z,0.00
2022-11-16T03:20:16.633Z,0.00
2022-11-16T03:21:16.617Z,0.00
2022-11-16T03:22:16.613Z,0.00
2022-11-16T03:23:16.591Z,0.00
2022-11-16T03:24:16.590Z,0.00
2022-11-16T03:25:16.597Z,0.00
2022-11-16T03:26:16.585Z,0.00
2022-11-16T03:27:16.544Z,0.00
2022-11-16T03:28:16.557Z,0.00
2022-11-16T03:29:16.534Z,0.00
2022-11-16T03:30:18.989Z,0.00
2022-11-16T03:31:16.516Z,0.00
2022-11-16T03:32:16.489Z,0.00
2022-11-16T03:33:16.494Z,0.00
2022-11-16T03:34:16.476Z,0.00
2022-11-16T03:35:16.475Z,0.00
2022-11-16T03:36:16.456Z,0.00
2022-11-16T03:37:16.452Z,0.00
2022-11-16T03:38:16.423Z,0.00
2022-11-16T03:39:16.423Z,0.00
2022-11-16T03:40:16.413Z,0.00
2022-11-16T03:41:16.415Z,0.00
2022-11-16T03:42:16.390Z,0.00
2022-11-16T03:43:16.393Z,0.00
2022-11-16T03:44:16.386Z,0.00
2022-11-16T03:45:16.360Z,0.00
2022-11-16T03:46:16.342Z,0.00
2022-11-16T03:47:16.335Z,0.00
2022-11-16T03:48:16.326Z,0.00
2022-11-16T03:49:16.315Z,0.00
2022-11-16T03:50:16.327Z,0.00
2022-11-16T03:51:16.276Z,0.00
2022-11-16T03:52:16.279Z,0.00
2022-11-16T03:53:16.290Z,0.00
2022-11-16T03:54:16.254Z,0.00
2022-11-16T03:55:16.259Z,0.00
2022-11-16T03:56:16.232Z,0.00
2022-11-16T03:57:16.223Z,0.00
2022-11-16T03:58:16.213Z,0.00
2022-11-16T03:59:16.201Z,0.00
2022-11-16T07:14:07.275Z,468.00
2022-11-16T07:15:07.199Z,576.00
2022-11-16T07:16:07.190Z,676.00
2022-11-16T07:17:09.617Z,776.00
2022-11-16T07:18:07.180Z,856.00
2022-11-16T07:19:07.169Z,916.00
2022-11-16T07:20:07.144Z,968.00
2022-11-16T07:21:07.148Z,1008.00
2022-11-16T07:22:07.123Z,1052.00
2022-11-16T07:23:12.890Z,1092.00
2022-11-16T07:24:08.105Z,1132.00
2022-11-16T07:25:07.102Z,1184.00
2022-11-16T07:26:07.111Z,1256.00
2022-11-16T07:27:07.078Z,1312.00
2022-11-16T07:28:07.070Z,1380.00
2022-11-16T07:29:07.084Z,1456.00
2022-11-16T07:30:07.142Z,1408.00
2022-11-16T07:31:07.034Z,1460.00
2022-11-16T07:32:07.019Z,1372.00
2022-11-16T07:33:07.013Z,1580.00
2022-11-16T07:34:06.984Z,1672.00
2022-11-16T07:35:06.991Z,1816.00
2022-11-16T07:36:06.984Z,1256.00
2022-11-16T07:37:06.953Z,1676.00
2022-11-16T07:38:06.974Z,1980.00
2022-11-16T07:39:06.930Z,1784.00
2022-11-16T07:40:06.926Z,1508.00
2022-11-16T07:41:06.922Z,2052.00
2022-11-16T07:42:06.905Z,1428.00
2022-11-16T07:43:06.897Z,1276.00
2022-11-16T07:44:11.799Z,1696.00
2022-11-16T07:45:07.861Z,2164.00
2022-11-16T07:47:07.860Z,2120.00
2022-11-16T07:48:06.851Z,1228.00
2022-11-16T07:49:11.193Z,1984.00
2022-11-16T07:50:06.814Z,2524.00
2022-11-16T07:51:06.789Z,2548.00
2022-11-16T07:52:06.788Z,2468.00
2022-11-16T07:53:06.800Z,2252.00
2022-11-16T07:54:06.758Z,2148.00
2022-11-16T07:55:06.745Z,1932.00
2022-11-16T07:56:06.732Z,1704.00
2022-11-16T07:57:06.722Z,1540.00
2022-11-16T07:58:06.727Z,1400.00
2022-11-16T07:59:06.703Z,1172.00
2022-11-16T08:00:06.696Z,872.00
2022-11-16T08:01:06.678Z,744.00
2022-11-16T08:02:06.781Z,768.00
2022-11-16T08:03:06.697Z,900.00
2022-11-16T08:04:06.642Z,820.00
2022-11-16T08:05:06.643Z,812.00
2022-11-16T08:06:06.641Z,800.00
2022-11-16T08:07:06.667Z,836.00
2022-11-16T08:08:06.610Z,904.00
2022-11-16T08:09:06.585Z,952.00
2022-11-16T08:10:06.686Z,1076.00
2022-11-16T08:11:06.589Z,1180.00
2022-11-16T08:12:06.574Z,1200.00
2022-11-16T08:13:06.555Z,1204.00
2022-11-16T08:14:06.529Z,1216.00
2022-11-16T08:15:06.533Z,1196.00
2022-11-16T08:16:06.527Z,1176.00
2022-11-16T08:17:06.509Z,1180.00
2022-11-16T08:18:06.626Z,1196.00
2022-11-16T08:19:06.485Z,1188.00
2022-11-16T08:20:06.472Z,1228.00
2022-11-16T08:21:06.446Z,1244.00
2022-11-16T08:22:06.435Z,1272.00
2022-11-16T08:23:06.442Z,1252.00
2022-11-16T08:24:06.414Z,1172.00
2022-11-16T08:25:06.403Z,1112.00
2022-11-16T08:26:06.395Z,1092.00
2022-11-16T08:27:06.380Z,1044.00
2022-11-16T08:28:06.383Z,1040.00
2022-11-16T08:29:06.369Z,1112.00
2022-11-16T08:30:06.348Z,1164.00
2022-11-16T08:31:06.336Z,1212.00
2022-11-16T08:32:06.339Z,1272.00
2022-11-16T08:33:06.344Z,1324.00
2022-11-16T08:34:06.321Z,1328.00
2022-11-16T08:35:06.303Z,1356.00
2022-11-16T08:36:12.520Z,1364.00
2022-11-16T08:37:07.276Z,1448.00
2022-11-16T08:38:06.284Z,1696.00
2022-11-16T08:39:06.242Z,1920.00
2022-11-16T08:40:06.250Z,2164.00
2022-11-16T08:41:06.220Z,2152.00
2022-11-16T08:42:06.207Z,2284.00
2022-11-16T08:43:06.228Z,2352.00
2022-11-16T08:44:06.185Z,2512.00
2022-11-16T08:45:06.197Z,2488.00
2022-11-16T08:46:06.161Z,2684.00
2022-11-16T08:47:06.151Z,2736.00
2022-11-16T08:48:06.175Z,2672.00
2022-11-16T08:49:06.150Z,2412.00
2022-11-16T08:51:37.056Z,2044.00
2022-11-16T08:52:15.918Z,2120.00
2022-11-16T08:53:15.923Z,2168.00
2022-11-16T08:54:15.895Z,2188.00
2022-11-16T08:55:15.885Z,1968.00
2022-11-16T08:56:15.877Z,1820.00
2022-11-16T08:57:15.862Z,2020.00
2022-11-16T08:58:15.882Z,2232.00
2022-11-16T08:59:15.841Z,2372.00
2022-11-16T09:00:15.845Z,2552.00
2022-11-16T09:01:15.930Z,2660.00
2022-11-16T09:02:15.878Z,2728.00
2022-11-16T09:03:15.805Z,2728.00
2022-11-16T09:04:15.796Z,2756.00
2022-11-16T09:05:15.773Z,2728.00
2022-11-16T09:06:15.774Z,2584.00
2022-11-16T09:07:15.821Z,2484.00
2022-11-16T09:08:15.777Z,2432.00
2022-11-16T09:09:15.729Z,2512.00
2022-11-16T09:10:15.729Z,2644.00
2022-11-16T09:11:15.873Z,2936.00
2022-11-16T09:12:15.694Z,3056.00
2022-11-16T09:14:40.670Z,2860.00
2022-11-16T09:15:26.027Z,2892.00
2022-11-16T09:16:26.019Z,2708.00
2022-11-16T09:17:26.005Z,2860.00
2022-11-16T09:18:26.009Z,2904.00
2022-11-16T09:19:25.983Z,2964.00
2022-11-16T09:20:25.972Z,2912.00
2022-11-16T09:21:25.967Z,2728.00
2022-11-16T09:22:25.979Z,2656.00
2022-11-16T09:23:26.059Z,2428.00
2022-11-16T09:24:25.927Z,2204.00
2022-11-16T09:25:25.922Z,2188.00
2022-11-16T09:26:25.912Z,2360.00
2022-11-16T09:27:25.896Z,2604.00
2022-11-16T09:28:25.895Z,3036.00
2022-11-16T09:29:25.877Z,3136.00
2022-11-16T09:30:25.883Z,2636.00
2022-11-16T09:31:25.849Z,2304.00
2022-11-16T09:32:25.844Z,2172.00
2022-11-16T09:33:25.849Z,2192.00
2022-11-16T09:34:25.824Z,2320.00
2022-11-16T09:35:25.817Z,2212.00
2022-11-16T09:36:25.800Z,2444.00
2022-11-16T09:37:25.781Z,2732.00
2022-11-16T09:38:40.169Z,2912.00
2022-11-16T09:41:45.392Z,3648.00
2022-11-16T09:42:45.381Z,4084.00
2022-11-16T09:43:46.514Z,4420.00
2022-11-16T09:44:45.364Z,4572.00
2022-11-16T09:45:45.348Z,4676.00
2022-11-16T09:46:45.348Z,4760.00
2022-11-16T09:47:45.329Z,4860.00
2022-11-16T09:48:45.327Z,4572.00
2022-11-16T09:49:45.310Z,4896.00
2022-11-16T09:50:45.295Z,4900.00
2022-11-16T09:52:55.124Z,5072.00
2022-11-16T09:53:55.217Z,5216.00
2022-11-16T09:54:55.083Z,5344.00
2022-11-16T09:55:55.067Z,1908.00
2022-11-16T09:56:55.058Z,5872.00
2022-11-16T09:57:55.057Z,6232.00
2022-11-16T09:58:55.049Z,6552.00
2022-11-16T09:59:55.022Z,3800.00
2022-11-16T10:00:55.053Z,7084.00
2022-11-16T10:01:55.001Z,7276.00
2022-11-16T10:02:55.007Z,2132.00
2022-11-16T10:03:54.995Z,7764.00
2022-11-16T10:04:58.225Z,8056.00
2022-11-16T10:05:54.970Z,6996.00
2022-11-16T10:06:54.998Z,3400.00
2022-11-16T10:07:54.938Z,2188.00
2022-11-16T10:08:54.938Z,7152.00
2022-11-16T10:09:55.027Z,7892.00
2022-11-16T10:10:54.902Z,7436.00
2022-11-16T10:11:54.883Z,7376.00
2022-11-16T10:12:54.884Z,7464.00
2022-11-16T10:13:56.259Z,7596.00
2022-11-16T10:14:54.865Z,7464.00
2022-11-16T10:15:54.838Z,7608.00
2022-11-16T10:16:54.831Z,7884.00
2022-11-16T10:17:54.840Z,7876.00
2022-11-16T10:18:54.809Z,8124.00
2022-11-16T10:19:54.805Z,8500.00
2022-11-16T10:20:54.790Z,9012.00
2022-11-16T10:21:54.778Z,9204.00
2022-11-16T10:22:54.781Z,1820.00
2022-11-16T10:23:54.762Z,2188.00
2022-11-16T10:24:54.749Z,2224.00
2022-11-16T10:25:54.855Z,9120.00
2022-11-16T10:26:54.725Z,9356.00
2022-11-16T10:27:54.719Z,9244.00
2022-11-16T10:28:54.695Z,9096.00
2022-11-16T10:29:54.681Z,8364.00
2022-11-16T10:30:54.674Z,8028.00
2022-11-16T10:31:54.664Z,7632.00
2022-11-16T10:32:54.665Z,7484.00
2022-11-16T10:33:54.638Z,7368.00
2022-11-16T10:34:54.650Z,7432.00
2022-11-16T10:35:54.620Z,7412.00
2022-11-16T10:36:54.615Z,1496.00
2022-11-16T10:37:54.633Z,2840.00
2022-11-16T10:38:54.586Z,7576.00
2022-11-16T10:39:54.580Z,1792.00
2022-11-16T10:40:54.555Z,1996.00
2022-11-16T10:41:54.662Z,1620.00
2022-11-16T10:42:54.554Z,2144.00
2022-11-16T10:43:54.524Z,7872.00
2022-11-16T10:44:54.510Z,7476.00
2022-11-16T10:45:54.507Z,1540.00
2022-11-16T10:46:54.488Z,1432.00
2022-11-16T10:47:54.490Z,1404.00
2022-11-16T10:48:54.463Z,2212.00
2022-11-16T10:49:54.447Z,4508.00
2022-11-16T10:50:54.454Z,2968.00
2022-11-16T10:51:54.425Z,7764.00
2022-11-16T10:52:54.433Z,4052.00
2022-11-16T10:53:54.411Z,8144.00
2022-11-16T10:54:54.400Z,2536.00
2022-11-16T10:55:54.380Z,7348.00
2022-11-16T10:56:54.379Z,3048.00
2022-11-16T10:57:54.504Z,2532.00
2022-11-16T10:58:54.351Z,7660.00
2022-11-16T10:59:54.334Z,4212.00
2022-11-16T11:00:54.377Z,2424.00
2022-11-16T11:01:54.317Z,2712.00
2022-11-16T11:02:54.312Z,6100.00
2022-11-16T11:03:54.296Z,2492.00
2022-11-16T11:04:54.280Z,1912.00
2022-11-16T11:05:54.266Z,7340.00
2022-11-16T11:06:54.305Z,2704.00
2022-11-16T11:07:59.470Z,2376.00
2022-11-16T11:08:55.231Z,2852.00
2022-11-16T11:09:54.227Z,4360.00
2022-11-16T11:10:54.222Z,6892.00
2022-11-16T11:11:54.195Z,3688.00
2022-11-16T11:12:54.203Z,9124.00
2022-11-16T11:13:54.296Z,8388.00
2022-11-16T11:14:54.169Z,4048.00
2022-11-16T11:15:54.161Z,7076.00
2022-11-16T11:16:54.153Z,6048.00
2022-11-16T11:17:54.148Z,1556.00
2022-11-16T11:18:54.134Z,1416.00
2022-11-16T11:19:54.109Z,1408.00
2022-11-16T11:20:54.124Z,1588.00
2022-11-16T11:21:54.093Z,6440.00
2022-11-16T11:22:54.086Z,7488.00
2022-11-16T11:23:54.063Z,7440.00
2022-11-16T11:24:54.067Z,7480.00
2022-11-16T11:25:54.043Z,7644.00
2022-11-16T11:26:54.029Z,4364.00
2022-11-16T11:27:54.053Z,7200.00
2022-11-16T11:28:54.013Z,7352.00
2022-11-16T11:29:54.019Z,7396.00
2022-11-16T11:30:53.987Z,7184.00
2022-11-16T11:31:53.977Z,7004.00
2022-11-16T11:32:53.976Z,7320.00
2022-11-16T11:33:53.944Z,7396.00
2022-11-16T11:34:53.964Z,2336.00
2022-11-16T11:35:53.941Z,1468.00
2022-11-16T11:36:53.925Z,1652.00
2022-11-16T11:37:53.926Z,2112.00
2022-11-16T11:39:14.947Z,7188.00
2022-11-16T11:41:03.701Z,7840.00
2022-11-16T11:42:03.682Z,8132.00
2022-11-16T11:43:03.687Z,2272.00
2022-11-16T11:44:03.662Z,1700.00
2022-11-16T11:45:03.768Z,7120.00
2022-11-16T11:46:03.664Z,7040.00
2022-11-16T11:47:55.655Z,7156.00
2022-11-16T11:48:04.632Z,7204.00
2022-11-16T11:49:03.619Z,6956.00
2022-11-16T11:50:03.603Z,6556.00
2022-11-16T11:51:03.585Z,6776.00
2022-11-16T11:52:03.605Z,5884.00
2022-11-16T11:53:03.575Z,5776.00
2022-11-16T11:54:03.552Z,5764.00
2022-11-16T11:55:03.616Z,5688.00
2022-11-16T11:56:04.552Z,5680.00
2022-11-16T11:57:03.654Z,5676.00
2022-11-16T11:58:03.541Z,6600.00
2022-11-16T11:59:03.501Z,6616.00
2022-11-16T12:00:03.540Z,6624.00
2022-11-16T12:01:03.493Z,6588.00
2022-11-16T12:02:03.470Z,6680.00
2022-11-16T12:03:03.550Z,1780.00
2022-11-16T12:04:03.460Z,3844.00
2022-11-16T12:05:03.438Z,5904.00
2022-11-16T12:06:03.429Z,6472.00
2022-11-16T12:07:03.506Z,6668.00
2022-11-16T12:08:03.411Z,6876.00
2022-11-16T12:09:03.402Z,7092.00
2022-11-16T12:10:03.387Z,7464.00
2022-11-16T12:11:03.368Z,7652.00
2022-11-16T12:12:03.359Z,7144.00
2022-11-16T12:13:03.388Z,6664.00
2022-11-16T12:14:03.348Z,6576.00
2022-11-16T12:15:03.328Z,1884.00
2022-11-16T12:16:03.409Z,5112.00
2022-11-16T12:17:03.309Z,1792.00
2022-11-16T12:18:03.306Z,1516.00
2022-11-16T12:19:03.276Z,1784.00
2022-11-16T12:20:03.290Z,1728.00
2022-11-16T12:21:03.255Z,1496.00
2022-11-16T12:22:03.241Z,1400.00
2022-11-16T12:23:04.419Z,1436.00
2022-11-16T12:24:03.223Z,1308.00
2022-11-16T12:25:03.213Z,1344.00
2022-11-16T12:26:03.201Z,1736.00
2022-11-16T12:27:03.187Z,1692.00
2022-11-16T12:28:03.203Z,1408.00
2022-11-16T12:29:03.190Z,1372.00
2022-11-16T12:30:03.156Z,1316.00
2022-11-16T12:31:03.143Z,1684.00
2022-11-16T12:32:03.140Z,2132.00
2022-11-16T12:33:03.235Z,2236.00
2022-11-16T12:34:03.135Z,2416.00
2022-11-16T12:35:03.093Z,2192.00
2022-11-16T12:36:03.088Z,2120.00
2022-11-16T12:37:03.078Z,3408.00
2022-11-16T12:38:03.059Z,2812.00
2022-11-16T12:39:03.058Z,2596.00
2022-11-16T12:40:03.059Z,2588.00
2022-11-16T12:41:03.029Z,3036.00
2022-11-16T12:42:03.022Z,5296.00
2022-11-16T12:43:03.025Z,5124.00
2022-11-16T12:44:03.019Z,1992.00
2022-11-16T12:45:02.987Z,2680.00
2022-11-16T12:46:02.985Z,2796.00
2022-11-16T12:47:02.990Z,1328.00
2022-11-16T12:48:02.965Z,1308.00
2022-11-16T12:49:03.082Z,1340.00
2022-11-16T12:50:02.930Z,1868.00
2022-11-16T12:51:02.916Z,1316.00
2022-11-16T12:52:02.905Z,1404.00
2022-11-16T12:53:02.891Z,1624.00
2022-11-16T12:54:02.889Z,1788.00
2022-11-16T12:55:30.705Z,2144.00
2022-11-16T12:56:03.857Z,4380.00
2022-11-16T12:57:02.860Z,2180.00
2022-11-16T12:58:02.829Z,2328.00
2022-11-16T12:59:02.824Z,2608.00
2022-11-16T13:00:02.823Z,2928.00
2022-11-16T13:01:02.964Z,6224.00
2022-11-16T13:02:02.796Z,7156.00
2022-11-16T13:03:02.784Z,6768.00
2022-11-16T13:04:02.772Z,6284.00
2022-11-16T13:05:02.791Z,5976.00
2022-11-16T13:06:02.766Z,5808.00
2022-11-16T13:07:07.851Z,5560.00
2022-11-16T13:08:03.732Z,5836.00
2022-11-16T13:09:02.711Z,3092.00
2022-11-16T13:10:02.727Z,2860.00
2022-11-16T13:11:02.702Z,2876.00
2022-11-16T13:12:02.687Z,3644.00
2022-11-16T13:13:34.828Z,5036.00
2022-11-16T13:14:03.655Z,2824.00
2022-11-16T13:15:02.658Z,3004.00
2022-11-16T13:16:02.648Z,1848.00
2022-11-16T13:17:02.618Z,2432.00
2022-11-16T13:18:02.606Z,2024.00
2022-11-16T13:19:02.596Z,2672.00
2022-11-16T13:20:02.659Z,2308.00
2022-11-16T13:21:02.618Z,1864.00
2022-11-16T13:22:02.570Z,1800.00
2022-11-16T13:23:02.548Z,4152.00
2022-11-16T13:24:02.541Z,5400.00
2022-11-16T13:25:02.551Z,4596.00
2022-11-16T13:26:02.515Z,2340.00
2022-11-16T13:27:02.508Z,2100.00
2022-11-16T13:28:02.492Z,1600.00
2022-11-16T13:29:02.489Z,1552.00
2022-11-16T13:30:02.492Z,1460.00
2022-11-16T13:31:02.469Z,1344.00
2022-11-16T13:32:02.457Z,1256.00
2022-11-16T13:33:02.447Z,1228.00
2022-11-16T13:34:02.430Z,1444.00
2022-11-16T13:35:02.433Z,1536.00
2022-11-16T13:36:02.404Z,1372.00
2022-11-16T13:37:02.420Z,3232.00
2022-11-16T13:38:02.488Z,4816.00
2022-11-16T13:39:02.367Z,4808.00
2022-11-16T13:40:02.382Z,4864.00
2022-11-16T13:41:02.351Z,4940.00
2022-11-16T13:42:02.343Z,4748.00
2022-11-16T13:43:02.321Z,1756.00
2022-11-16T13:44:02.312Z,1228.00
2022-11-16T13:45:02.300Z,1124.00
2022-11-16T13:46:02.311Z,1180.00
2022-11-16T13:47:02.302Z,1504.00
2022-11-16T13:48:02.264Z,3256.00
2022-11-16T13:49:02.294Z,1588.00
2022-11-16T13:50:02.242Z,4272.00
2022-11-16T13:51:02.260Z,4228.00
2022-11-16T13:52:21.450Z,4068.00
2022-11-16T13:54:44.141Z,1516.00
2022-11-16T13:55:03.194Z,1264.00
2022-11-16T13:56:02.199Z,1140.00
2022-11-16T13:57:02.168Z,976.00
2022-11-16T13:58:02.149Z,800.00
2022-11-16T13:59:02.147Z,728.00
2022-11-16T14:00:02.125Z,720.00
2022-11-16T14:01:02.202Z,804.00
2022-11-16T14:02:02.109Z,936.00
2022-11-16T14:03:02.099Z,976.00
2022-11-16T14:04:02.147Z,900.00
2022-11-16T14:05:02.068Z,848.00
2022-11-16T14:06:02.086Z,820.00
2022-11-16T14:07:02.123Z,712.00
2022-11-16T14:08:02.040Z,540.00
2022-11-16T14:09:02.140Z,412.00
2022-11-16T14:10:02.026Z,372.00
2022-11-16T14:11:02.025Z,368.00
2022-11-16T14:12:02.002Z,380.00
2022-11-16T14:13:01.984Z,396.00
2022-11-16T14:14:01.979Z,420.00
2022-11-16T14:15:03.766Z,456.00
2022-11-16T14:16:01.976Z,472.00
2022-11-16T14:17:01.949Z,480.00
2022-11-16T14:18:01.930Z,512.00
2022-11-16T14:19:01.939Z,544.00
2022-11-16T14:20:01.914Z,576.00
2022-11-16T14:21:01.917Z,572.00
2022-11-16T14:22:01.897Z,568.00
2022-11-16T14:23:01.950Z,572.00
2022-11-16T14:24:01.876Z,564.00
2022-11-16T14:25:02.001Z,536.00
2022-11-16T14:26:01.844Z,516.00
2022-11-16T14:27:01.833Z,484.00
2022-11-16T14:28:01.823Z,416.00
2022-11-16T14:29:01.818Z,436.00
2022-11-16T14:30:01.872Z,452.00
2022-11-16T14:31:01.792Z,480.00
2022-11-16T14:32:01.782Z,548.00
2022-11-16T14:33:01.771Z,664.00
2022-11-16T14:34:01.758Z,632.00
2022-11-16T14:35:01.761Z,588.00
2022-11-16T14:36:01.751Z,548.00
2022-11-16T14:37:01.733Z,568.00
2022-11-16T14:38:01.707Z,568.00
2022-11-16T14:39:01.706Z,584.00
2022-11-16T14:40:01.684Z,604.00
2022-11-16T14:41:01.712Z,600.00
2022-11-16T14:42:01.669Z,572.00
2022-11-16T14:43:15.846Z,568.00
2022-11-16T14:44:02.636Z,544.00
2022-11-16T14:45:01.648Z,484.00
2022-11-16T14:46:01.636Z,460.00
2022-11-16T14:47:01.605Z,480.00
2022-11-16T14:48:01.595Z,496.00
2022-11-16T14:49:01.586Z,476.00
2022-11-16T14:50:01.572Z,468.00
2022-11-16T14:51:01.581Z,440.00
2022-11-16T14:52:01.557Z,444.00
2022-11-16T14:53:01.541Z,376.00
2022-11-16T14:54:01.525Z,360.00
2022-11-16T14:55:01.520Z,372.00
2022-11-16T14:56:01.537Z,344.00
2022-11-16T14:57:01.621Z,312.00
2022-11-16T14:58:01.479Z,276.00
2022-11-16T14:59:01.484Z,264.00
2022-11-16T15:00:01.483Z,264.00
2022-11-16T15:01:01.491Z,264.00
2022-11-16T15:02:01.433Z,256.00
2022-11-16T15:03:02.956Z,248.00
2022-11-16T15:04:01.485Z,240.00
2022-11-16T15:05:01.414Z,232.00
2022-11-16T15:06:01.408Z,212.00
2022-11-16T15:07:01.462Z,200.00
2022-11-16T15:08:01.382Z,204.00
2022-11-16T15:09:01.372Z,216.00
2022-11-16T15:10:01.346Z,216.00
2022-11-16T15:11:01.351Z,212.00
2022-11-16T15:12:01.329Z,192.00
2022-11-16T15:13:01.433Z,160.00
2022-11-16T15:14:01.306Z,144.00
2022-11-16T15:15:01.301Z,152.00
2022-11-16T15:16:01.302Z,164.00
2022-11-16T15:17:01.264Z,160.00
2022-11-16T15:18:01.275Z,160.00
2022-11-16T15:19:01.280Z,160.00
2022-11-16T15:20:01.277Z,148.00
2022-11-16T15:21:01.224Z,136.00
2022-11-16T15:22:01.233Z,128.00
2022-11-16T15:23:01.201Z,120.00
2022-11-16T15:24:28.957Z,112.00
2022-11-16T15:25:02.187Z,100.00
2022-11-16T15:26:01.172Z,80.00
2022-11-16T15:27:01.169Z,64.00
2022-11-16T15:28:01.144Z,64.00
2022-11-16T15:29:01.243Z,72.00
2022-11-16T15:30:01.135Z,72.00
2022-11-16T15:31:01.121Z,72.00
2022-11-16T15:32:01.112Z,72.00
2022-11-16T15:33:01.086Z,72.00
2022-11-16T15:34:01.073Z,68.00
2022-11-16T15:35:05.123Z,68.00
2022-11-16T15:36:01.064Z,64.00
2022-11-16T15:37:01.058Z,56.00
2022-11-16T15:38:01.038Z,56.00
2022-11-16T15:39:01.038Z,52.00
2022-11-16T15:40:01.936Z,48.00
2022-11-16T15:41:01.008Z,48.00
2022-11-16T15:42:04.026Z,48.00
2022-11-16T15:43:00.982Z,44.00
2022-11-16T15:44:14.187Z,44.00
2022-11-16T15:45:02.071Z,40.00
2022-11-16T15:46:00.945Z,32.00
2022-11-16T15:47:00.949Z,32.00
2022-11-16T15:48:00.920Z,32.00
2022-11-16T15:49:00.915Z,28.00
2022-11-16T15:50:00.898Z,24.00
2022-11-16T15:51:04.688Z,24.00
2022-11-16T15:52:00.895Z,20.00
2022-11-16T15:53:00.890Z,20.00
2022-11-16T15:54:00.859Z,12.00
2022-11-16T15:55:00.843Z,16.00